Time;durP1;ratioP1;P1;durP2;ratioP2;P2;SDS_P1;SDS_P2;PMS_P1;PMS_P2;Temp;Humidity;BMP_temperature;BMP_pressure;BME280_temperature;BME280_humidity;BME280_pressure;Samples;Min_cycle;Max_cycle;Signal;HPM_P1;HPM_P2
2022/09/19 00:02:04;;;;;;;;;;;;;;;;;;5053441;28;1067;-70
2022/09/19 00:04:31;;;;;;;;;;;;;;;;;;5053696;28;886;-71
2022/09/19 00:06:59;;;;;;;;;;;;;;;;;;5053691;28;925;-71
2022/09/19 00:09:26;;;;;;;;;;;;;;;;;;5035606;28;1468;-72
2022/09/19 00:11:53;;;;;;;;;;;;;;;;;;5035485;28;1131;-71
2022/09/19 00:14:20;;;;;;;;;;;;;;;;;;5053410;28;1918;-71
2022/09/19 00:16:46;;;;;;;;;;;;;;;;;;5054515;28;1060;-71
2022/09/19 00:19:15;;;;;;;;;;;;;;;;;;5035282;28;1326;-70
2022/09/19 00:21:41;;;;;;;;;;;;;;;;;;5053092;28;1043;-70
2022/09/19 00:26:55;;;;;;;;;;;;;;;;;;5035173;28;1041;-71
2022/09/19 00:29:21;;;;;;;;;;;;;;;;;;5035266;28;1323;-71
2022/09/19 00:31:48;;;;;;;;;;;;;;;;;;5053059;28;815;-71
2022/09/19 00:34:15;;;;;;;;;;;;;;;;;;5034952;28;1914;-72
2022/09/19 00:36:42;;;;;;;;;;;;;;;;;;5035337;28;1124;-72
2022/09/19 00:39:10;;;;;;;;;;;;;;;;;;5052663;28;1346;-71
2022/09/19 00:41:37;;;;;;;;;;;;;;;;;;5034965;28;1379;-71
2022/09/19 00:44:04;;;;;;;;;;;;;;;;;;5053132;28;768;-71
2022/09/19 00:46:31;;;;;;;;;;;;;;;;;;5035150;28;1330;-71
2022/09/19 00:48:59;;;;;;;;;;;;;;;;;;5034452;28;1566;-69
2022/09/19 00:51:31;;;;;;;;;;;;;;;;;;5034822;28;1128;-72
2022/09/19 00:53:57;;;;;;;;;;;;;;;;;;5035173;28;1918;-71
2022/09/19 00:56:25;;;;;;;;;;;;;;;;;;5052632;28;790;-71
2022/09/19 00:58:51;;;;;;;;;;;;;;;;;;5034818;28;1326;-72
2022/09/19 01:01:18;;;;;;;;;;;;;;;;;;5052397;28;1131;-71
2022/09/19 01:03:45;;;;;;;;;;;;;;;;;;5034659;28;1199;-72
2022/09/19 01:06:16;;;;;;;;;;;;;;;;;;5034481;28;889;-73
2022/09/19 01:08:49;;;;;;;;;;;;;;;;;;5052482;28;834;-73
2022/09/19 01:11:22;;;;;;;;;;;;;;;;;;5052240;28;759;-71
2022/09/19 01:13:52;;;;;;;;;;;;;;;;;;5051953;28;1971;-71
2022/09/19 01:16:20;;;;;;;;;;;;;;;;;;5034078;28;1369;-72
2022/09/19 01:18:47;;;;;;;;;;;;;;;;;;5034629;28;1321;-71
2022/09/19 01:24:08;;;;;;;;;;;;;;;;;;5034432;28;1353;-70
2022/09/19 01:26:38;;;;;;;;;;;;;;;;;;5034497;28;1414;-70
2022/09/19 01:29:07;;;;;;;;;;;;;;;;;;5052120;28;1302;-70
2022/09/19 01:31:36;;;;;;;;;;;;;;;;;;5034121;28;1237;-71
2022/09/19 01:34:04;;;;;;;;;;;;;;;;;;5033889;28;1910;-71
2022/09/19 01:36:32;;;;;;;;;;;;;;;;;;5034452;28;1334;-71
2022/09/19 01:38:59;;;;;;;;;;;;;;;;;;5034015;28;1471;-71
2022/09/19 01:41:31;;;;;;;;;;;;;;;;;;5034016;28;1007;-71
2022/09/19 01:44:02;;;;;;;;;;;;;;;;;;5034113;28;1496;-70
2022/09/19 01:46:31;;;;;;;;;;;;;;;;;;5051266;23;3811;-73
2022/09/19 01:48:59;;;;;;;;;;;;;;;;;;5066973;28;1386;-73
2022/09/19 01:51:28;;;;;;;;;;;;;;;;;;5066857;28;1180;-73
2022/09/19 01:53:58;;;;;;;;;;;;;;;;;;5050432;28;1906;-72
2022/09/19 01:56:48;;;;;;;;;;;;;;;;;;5051160;28;1270;-72
2022/09/19 01:59:22;;;;;;;;;;;;;;;;;;5050830;28;1366;-73
2022/09/19 02:01:51;;;;;;;;;;;;;;;;;;5049967;28;1333;-73
2022/09/19 02:04:19;;;;;;;;;;;;;;;;;;5050079;28;807;-72
2022/09/19 02:06:48;;;;;;;;;;;;;;;;;;5050592;28;1327;-72
2022/09/19 02:09:17;;;;;;;;;;;;;;;;;;5050301;28;1521;-72
2022/09/19 02:11:50;;;;;;;;;;;;;;;;;;5049734;28;1107;-73
2022/09/19 02:14:18;;;;;;;;;;;;;;;;;;5051437;28;1910;-72
2022/09/19 02:16:51;;;;;;;;;;;;;;;;;;5050157;28;1404;-72
2022/09/19 02:19:19;;;;;;;;;;;;;;;;;;5050060;28;1294;-72
2022/09/19 02:21:48;;;;;;;;;;;;;;;;;;5049943;28;1290;-72
2022/09/19 02:24:16;;;;;;;;;;;;;;;;;;5050321;28;1305;-73
2022/09/19 02:26:42;;;;;;;;;;;;;;;;;;5049726;28;1285;-73
2022/09/19 02:29:09;;;;;;;;;;;;;;;;;;5050134;28;962;-73
2022/09/19 02:31:37;;;;;;;;;;;;;;;;;;5049697;28;1296;-73
2022/09/19 02:34:05;;;;;;;;;;;;;;;;;;5049804;28;1960;-73
2022/09/19 02:36:35;;;;;;;;;;;;;;;;;;5051347;28;1374;-72
2022/09/19 02:39:03;;;;;;;;;;;;;;;;;;5049974;28;1259;-72
2022/09/19 02:41:52;;;;;;;;;;;;;;;;;;5050494;28;1557;-73
2022/09/19 02:44:20;;;;;;;;;;;;;;;;;;5029244;28;1619;-73
2022/09/19 02:46:49;;;;;;;;;;;;;;;;;;5029730;28;1503;-73
2022/09/19 02:49:15;;;;;;;;;;;;;;;;;;5029989;28;1246;-73
2022/09/19 02:51:45;;;;;;;;;;;;;;;;;;5029477;28;1470;-72
2022/09/19 02:54:14;;;;;;;;;;;;;;;;;;5029856;28;1910;-73
2022/09/19 02:56:41;;;;;;;;;;;;;;;;;;5029617;28;1611;-72
2022/09/19 02:59:09;;;;;;;;;;;;;;;;;;5030070;28;1212;-72
2022/09/19 03:01:58;;;;;;;;;;;;;;;;;;5029612;28;1317;-73
2022/09/19 03:04:25;;;;;;;;;;;;;;;;;;5029714;28;1228;-72
2022/09/19 03:06:57;;;;;;;;;;;;;;;;;;5029685;28;1630;-73
2022/09/19 03:09:24;;;;;;;;;;;;;;;;;;5029725;28;1407;-72
2022/09/19 03:11:54;;;;;;;;;;;;;;;;;;5030708;28;759;-72
2022/09/19 03:14:20;;;;;;;;;;;;;;;;;;5029699;28;1898;-72
2022/09/19 03:16:47;;;;;;;;;;;;;;;;;;5030855;28;1321;-73
2022/09/19 03:19:13;;;;;;;;;;;;;;;;;;5029820;28;1215;-72
2022/09/19 03:21:40;;;;;;;;;;;;;;;;;;5029371;28;1307;-72
2022/09/19 03:24:08;;;;;;;;;;;;;;;;;;5029826;28;1168;-72
2022/09/19 03:26:36;;;;;;;;;;;;;;;;;;5029600;28;1348;-73
2022/09/19 03:29:05;;;;;;;;;;;;;;;;;;5029525;28;1300;-72
2022/09/19 03:31:42;;;;;;;;;;;;;;;;;;5029402;28;1217;-72
2022/09/19 03:34:10;;;;;;;;;;;;;;;;;;5029332;28;1914;-72
2022/09/19 03:36:37;;;;;;;;;;;;;;;;;;5029545;28;1282;-73
2022/09/19 03:39:05;;;;;;;;;;;;;;;;;;5032346;28;1110;-72
2022/09/19 03:41:39;;;;;;;;;;;;;;;;;;5032887;28;1157;-72
2022/09/19 03:44:07;;;;;;;;;;;;;;;;;;5032999;28;916;-72
2022/09/19 03:46:35;;;;;;;;;;;;;;;;;;5032837;28;1325;-72
2022/09/19 03:49:02;;;;;;;;;;;;;;;;;;5032871;28;1373;-72
2022/09/19 03:51:30;;;;;;;;;;;;;;;;;;5032431;28;1659;-73
2022/09/19 03:53:58;;;;;;;;;;;;;;;;;;5032775;28;1969;-73
2022/09/19 03:56:28;;;;;;;;;;;;;;;;;;5032564;28;1469;-72
2022/09/19 03:58:55;;;;;;;;;;;;;;;;;;5033825;28;835;-72
2022/09/19 04:01:24;;;;;;;;;;;;;;;;;;5032421;28;1489;-73
2022/09/19 04:03:52;;;;;;;;;;;;;;;;;;5032338;28;1584;-72
2022/09/19 04:06:20;;;;;;;;;;;;;;;;;;5032539;28;1588;-72
2022/09/19 04:08:46;;;;;;;;;;;;;;;;;;5032387;28;1293;-72
2022/09/19 04:11:14;;;;;;;;;;;;;;;;;;5032444;28;1436;-72
2022/09/19 04:13:41;;;;;;;;;;;;;;;;;;5032172;28;1914;-75
2022/09/19 04:16:17;;;;;;;;;;;;;;;;;;5030866;28;1441;-72
2022/09/19 04:18:47;;;;;;;;;;;;;;;;;;5017757;28;1510;-74
2022/09/19 04:21:20;;;;;;;;;;;;;;;;;;5041565;28;1406;-74
2022/09/19 04:24:06;;;;;;;;;;;;;;;;;;5033455;28;1416;-75
2022/09/19 04:26:50;;;;;;;;;;;;;;;;;;5040954;28;1397;-74
2022/09/19 04:29:19;;;;;;;;;;;;;;;;;;5038270;28;1464;-75
2022/09/19 04:31:48;;;;;;;;;;;;;;;;;;5044827;28;1197;-74
2022/09/19 04:34:14;;;;;;;;;;;;;;;;;;5038208;28;2013;-75
2022/09/19 04:36:43;;;;;;;;;;;;;;;;;;5036638;28;1507;-74
2022/09/19 04:39:10;;;;;;;;;;;;;;;;;;5036219;28;1414;-75
2022/09/19 04:41:39;;;;;;;;;;;;;;;;;;5042473;28;1429;-75
2022/09/19 04:44:06;;;;;;;;;;;;;;;;;;5041970;28;1458;-74
2022/09/19 04:46:54;;;;;;;;;;;;;;;;;;5039102;28;1640;-75
2022/09/19 04:49:20;;;;;;;;;;;;;;;;;;5051713;28;1475;-74
2022/09/19 04:51:47;;;;;;;;;;;;;;;;;;5051157;28;1340;-75
2022/09/19 04:54:14;;;;;;;;;;;;;;;;;;5039295;28;1960;-74
2022/09/19 04:56:44;;;;;;;;;;;;;;;;;;5039562;28;1402;-73
2022/09/19 04:59:10;;;;;;;;;;;;;;;;;;5031802;28;1413;-74
2022/09/19 05:01:38;;;;;;;;;;;;;;;;;;5031350;28;1454;-73
2022/09/19 05:04:05;;;;;;;;;;;;;;;;;;5031203;28;1325;-74
2022/09/19 05:06:32;;;;;;;;;;;;;;;;;;5031451;28;1424;-73
2022/09/19 05:09:00;;;;;;;;;;;;;;;;;;5031449;28;1472;-74
2022/09/19 05:11:40;;;;;;;;;;;;;;;;;;5031074;28;1445;-74
2022/09/19 05:14:09;;;;;;;;;;;;;;;;;;5032595;28;1969;-73
2022/09/19 05:16:37;;;;;;;;;;;;;;;;;;5031208;28;1547;-74
2022/09/19 05:19:06;;;;;;;;;;;;;;;;;;5030868;28;1039;-74
2022/09/19 05:21:33;;;;;;;;;;;;;;;;;;5031046;28;1124;-73
2022/09/19 05:24:00;;;;;;;;;;;;;;;;;;5031141;28;1331;-74
2022/09/19 05:26:26;;;;;;;;;;;;;;;;;;5024772;28;1491;-74
2022/09/19 05:28:55;;;;;;;;;;;;;;;;;;5029883;28;1465;-74
2022/09/19 05:31:25;;;;;;;;;;;;;;;;;;5028302;28;1416;-73
2022/09/19 05:34:03;;;;;;;;;;;;;;;;;;5025165;28;1977;-73
2022/09/19 05:36:32;;;;;;;;;;;;;;;;;;5032739;28;1700;-74
2022/09/19 05:39:13;;;;;;;;;;;;;;;;;;5031328;28;1313;-74
2022/09/19 05:41:58;;;;;;;;;;;;;;;;;;5031541;28;720;-74
2022/09/19 05:44:26;;;;;;;;;;;;;;;;;;5028722;28;1404;-74
2022/09/19 05:46:57;;;;;;;;;;;;;;;;;;5035423;28;1753;-74
2022/09/19 05:49:23;;;;;;;;;;;;;;;;;;5048798;28;1522;-73
2022/09/19 05:51:55;;;;;;;;;;;;;;;;;;5040517;28;1605;-74
2022/09/19 05:54:23;;;;;;;;;;;;;;;;;;5055869;28;2352;-74
2022/09/19 05:57:05;;;;;;;;;;;;;;;;;;5026088;28;1467;-74
2022/09/19 05:59:32;;;;;;;;;;;;;;;;;;5026578;28;1549;-75
2022/09/19 06:02:01;;;;;;;;;;;;;;;;;;5026787;28;1317;-75
2022/09/19 06:04:40;;;;;;;;;;;;;;;;;;5024340;28;1506;-76
2022/09/19 06:07:08;;;;;;;;;;;;;;;;;;5025050;28;1391;-74
2022/09/19 06:09:35;;;;;;;;;;;;;;;;;;5038464;28;1587;-74
2022/09/19 06:12:02;;;;;;;;;;;;;;;;;;5029730;28;1345;-75
2022/09/19 06:14:31;;;;;;;;;;;;;;;;;;5029921;28;1922;-75
2022/09/19 06:17:01;;;;;;;;;;;;;;;;;;5029985;28;1428;-75
2022/09/19 06:19:40;;;;;;;;;;;;;;;;;;5039949;28;1476;-73
2022/09/19 06:22:12;;;;;;;;;;;;;;;;;;5044571;28;1404;-73
2022/09/19 06:24:40;;;;;;;;;;;;;;;;;;5043732;28;1587;-73
2022/09/19 06:27:09;;;;;;;;;;;;;;;;;;5031296;28;1446;-74
2022/09/19 06:29:38;;;;;;;;;;;;;;;;;;5028652;28;1449;-73
2022/09/19 06:32:30;;;;;;;;;;;;;;;;;;5023238;28;1399;-74
2022/09/19 06:35:23;;;;;;;;;;;;;;;;;;5020086;28;1918;-74
2022/09/19 06:37:50;;;;;;;;;;;;;;;;;;5039576;28;1485;-73
2022/09/19 06:40:20;;;;;;;;;;;;;;;;;;5028999;28;1309;-73
2022/09/19 06:43:09;;;;;;;;;;;;;;;;;;5025951;28;1464;-74
2022/09/19 06:45:58;;;;;;;;;;;;;;;;;;5037035;28;1411;-74
2022/09/19 06:48:48;;;;;;;;;;;;;;;;;;5029633;28;1525;-73
2022/09/19 06:51:27;;;;;;;;;;;;;;;;;;5051076;28;1549;-74
2022/09/19 06:53:54;;;;;;;;;;;;;;;;;;5031493;28;1219;-74
2022/09/19 06:56:21;;;;;;;;;;;;;;;;;;5026641;28;1918;-74
2022/09/19 06:58:47;;;;;;;;;;;;;;;;;;5029198;28;1373;-75
2022/09/19 07:01:15;;;;;;;;;;;;;;;;;;5031575;28;1434;-74
2022/09/19 07:03:42;;;;;;;;;;;;;;;;;;5034778;28;1430;-75
2022/09/19 07:06:09;;;;;;;;;;;;;;;;;;5036875;28;1413;-73
2022/09/19 07:08:43;;;;;;;;;;;;;;;;;;5040392;28;1153;-73
2022/09/19 07:11:12;;;;;;;;;;;;;;;;;;5042174;28;1459;-74
2022/09/19 07:13:43;;;;;;;;;;;;;;;;;;5034568;28;1348;-73
2022/09/19 07:16:10;;;;;;;;;;;;;;;;;;5032388;28;1973;-74
2022/09/19 07:18:38;;;;;;;;;;;;;;;;;;5033952;28;790;-74
2022/09/19 07:21:24;;;;;;;;;;;;;;;;;;5032734;28;1598;-73
2022/09/19 07:23:50;;;;;;;;;;;;;;;;;;5041906;28;1508;-74
2022/09/19 07:26:36;;;;;;;;;;;;;;;;;;5041381;28;1400;-74
2022/09/19 07:29:04;;;;;;;;;;;;;;;;;;5051922;28;1333;-74
2022/09/19 07:31:30;;;;;;;;;;;;;;;;;;5045143;28;1657;-74
2022/09/19 07:33:57;;;;;;;;;;;;;;;;;;5029851;28;1447;-75
2022/09/19 07:36:27;;;;;;;;;;;;;;;;;;5040379;28;1922;-75
2022/09/19 07:38:53;;;;;;;;;;;;;;;;;;5043414;28;1458;-75
2022/09/19 07:41:44;;;;;;;;;;;;;;;;;;5037136;28;1511;-74
2022/09/19 07:44:35;;;;;;;;;;;;;;;;;;5045573;28;1206;-74
2022/09/19 07:47:28;;;;;;;;;;;;;;;;;;5052683;28;1645;-74
2022/09/19 07:50:18;;;;;;;;;;;;;;;;;;5053189;22;3577;-68
2022/09/19 07:52:58;;;;;;;;;;;;;;;;;;5028282;28;1456;-70
2022/09/19 07:55:25;;;;;;;;;;;;;;;;;;5034544;28;1960;-70
2022/09/19 07:57:54;;;;;;;;;;;;;;;;;;5032119;28;1164;-70
2022/09/19 08:00:27;;;;;;;;;;;;;;;;;;5031221;28;1538;-70
2022/09/19 08:02:58;;;;;;;;;;;;;;;;;;5030970;28;1613;-70
2022/09/19 08:05:25;;;;;;;;;;;;;;;;;;5048123;28;1110;-70
2022/09/19 08:07:52;;;;;;;;;;;;;;;;;;5031320;28;1487;-71
2022/09/19 08:10:18;;;;;;;;;;;;;;;;;;5031152;28;1407;-70
2022/09/19 08:12:45;;;;;;;;;;;;;;;;;;5030464;28;1496;-71
2022/09/19 08:15:15;;;;;;;;;;;;;;;;;;5032386;28;1907;-70
2022/09/19 08:17:42;;;;;;;;;;;;;;;;;;5031530;28;1370;-71
2022/09/19 08:20:08;;;;;;;;;;;;;;;;;;5031331;28;1419;-70
2022/09/19 08:22:39;;;;;;;;;;;;;;;;;;5030088;28;1514;-69
2022/09/19 08:25:09;;;;;;;;;;;;;;;;;;5032213;28;1341;-71
2022/09/19 08:27:37;;;;;;;;;;;;;;;;;;5030785;28;1568;-71
2022/09/19 08:30:04;;;;;;;;;;;;;;;;;;5028341;28;1576;-69
2022/09/19 08:32:33;;;;;;;;;;;;;;;;;;5028808;28;1396;-70
2022/09/19 08:34:59;;;;;;;;;;;;;;;;;;5030589;28;1911;-71
2022/09/19 08:37:26;;;;;;;;;;;;;;;;;;5038274;28;1409;-71
2022/09/19 08:42:42;;;;;;;;;;;;;;;;;;5047168;28;1474;-71
2022/09/19 08:45:11;;;;;;;;;;;;;;;;;;5030393;28;1360;-70
2022/09/19 08:47:39;;;;;;;;;;;;;;;;;;5030907;28;1566;-70
2022/09/19 08:50:06;;;;;;;;;;;;;;;;;;5047333;28;1417;-70
2022/09/19 08:52:37;;;;;;;;;;;;;;;;;;5030234;28;1467;-70
2022/09/19 08:55:06;;;;;;;;;;;;;;;;;;5029343;28;2253;-70
2022/09/19 08:57:35;;;;;;;;;;;;;;;;;;5036755;28;1727;-69
2022/09/19 09:00:07;;;;;;;;;;;;;;;;;;5046691;28;1505;-71
2022/09/19 09:02:38;;;;;;;;;;;;;;;;;;5028879;28;1435;-71
2022/09/19 09:05:12;;;;;;;;;;;;;;;;;;5029750;28;1608;-72
2022/09/19 09:07:42;;;;;;;;;;;;;;;;;;5047109;28;1347;-72
2022/09/19 09:10:32;;;;;;;;;;;;;;;;;;5031854;28;1342;-70
2022/09/19 09:13:01;;;;;;;;;;;;;;;;;;5046882;28;1463;-69
2022/09/19 09:15:29;;;;;;;;;;;;;;;;;;5028490;28;1918;-70
2022/09/19 09:18:00;;;;;;;;;;;;;;;;;;5044480;28;1341;-72
2022/09/19 09:20:31;;;;;;;;;;;;;;;;;;5030275;28;1710;-69
2022/09/19 09:23:04;;;;;;;;;;;;;;;;;;5046245;28;1519;-71
2022/09/19 09:25:40;;;;;;;;;;;;;;;;;;5027756;28;1452;-72
2022/09/19 09:28:09;;;;;;;;;;;;;;;;;;5035143;28;1435;-72
2022/09/19 09:30:49;;;;;;;;;;;;;;;;;;5019799;28;1392;-71
2022/09/19 09:33:18;;;;;;;;;;;;;;;;;;5010055;28;1288;-71
2022/09/19 09:35:47;;;;;;;;;;;;;;;;;;5009477;28;1973;-72
2022/09/19 09:38:18;;;;;;;;;;;;;;;;;;5009872;28;1428;-70
2022/09/19 09:43:31;;;;;;;;;;;;;;;;;;5022483;28;1188;-70
2022/09/19 09:45:59;;;;;;;;;;;;;;;;;;5029452;28;1448;-69
2022/09/19 09:48:30;;;;;;;;;;;;;;;;;;5027728;28;1472;-72
2022/09/19 09:51:05;;;;;;;;;;;;;;;;;;5025586;28;1536;-73
2022/09/19 09:53:35;;;;;;;;;;;;;;;;;;5046069;28;1221;-72
2022/09/19 09:56:17;;;;;;;;;;;;;;;;;;5029403;28;2014;-72
2022/09/19 09:58:57;;;;;;;;;;;;;;;;;;5028349;28;1589;-72
2022/09/19 10:04:22;;;;;;;;;;;;;;;;;;5029396;28;1363;-72
2022/09/19 10:06:57;;;;;;;;;;;;;;;;;;5045830;28;1589;-73
2022/09/19 10:09:23;;;;;;;;;;;;;;;;;;5034866;28;1479;-73
2022/09/19 10:11:54;;;;;;;;;;;;;;;;;;5031101;28;1482;-72
2022/09/19 10:14:23;;;;;;;;;;;;;;;;;;5029213;28;1343;-72
2022/09/19 10:16:53;;;;;;;;;;;;;;;;;;5029017;28;1918;-72
2022/09/19 10:19:25;;;;;;;;;;;;;;;;;;5036033;28;1119;-72
2022/09/19 10:21:52;;;;;;;;;;;;;;;;;;5030881;28;1509;-72
2022/09/19 10:24:39;;;;;;;;;;;;;;;;;;5029048;28;1539;-72
2022/09/19 10:27:11;;;;;;;;;;;;;;;;;;5029496;28;1569;-72
2022/09/19 10:29:48;;;;;;;;;;;;;;;;;;5027442;28;1448;-73
2022/09/19 10:32:17;;;;;;;;;;;;;;;;;;5024127;28;1524;-70
2022/09/19 10:35:26;;;;;;;;;;;;;;;;;;5029648;28;1454;-72
2022/09/19 10:37:53;;;;;;;;;;;;;;;;;;5036550;28;1922;-73
2022/09/19 10:40:19;;;;;;;;;;;;;;;;;;5032352;28;1482;-73
2022/09/19 10:42:48;;;;;;;;;;;;;;;;;;5028752;28;1432;-72
2022/09/19 10:45:25;;;;;;;;;;;;;;;;;;5038729;28;1519;-72
2022/09/19 10:47:53;;;;;;;;;;;;;;;;;;5031734;28;1258;-72
2022/09/19 10:50:22;;;;;;;;;;;;;;;;;;5039791;28;1432;-72
2022/09/19 10:53:15;;;;;;;;;;;;;;;;;;5048320;28;1418;-72
2022/09/19 10:55:43;;;;;;;;;;;;;;;;;;5031219;28;1915;-72
2022/09/19 10:58:16;;;;;;;;;;;;;;;;;;5046770;28;1613;-73
2022/09/19 11:00:48;;;;;;;;;;;;;;;;;;5032683;28;1456;-72
2022/09/19 11:03:20;;;;;;;;;;;;;;;;;;5032879;28;1320;-72
2022/09/19 11:05:47;;;;;;;;;;;;;;;;;;5030538;28;1357;-72
2022/09/19 11:08:23;;;;;;;;;;;;;;;;;;5022877;28;1291;-71
2022/09/19 11:10:49;;;;;;;;;;;;;;;;;;5022551;28;1519;-72
2022/09/19 11:13:23;;;;;;;;;;;;;;;;;;5017946;28;1196;-72
2022/09/19 11:15:55;;;;;;;;;;;;;;;;;;5012840;28;1910;-72
2022/09/19 11:18:26;;;;;;;;;;;;;;;;;;5015500;28;1439;-72
2022/09/19 11:20:57;;;;;;;;;;;;;;;;;;5029987;28;1450;-72
2022/09/19 11:23:28;;;;;;;;;;;;;;;;;;5032725;28;1587;-72
2022/09/19 11:25:58;;;;;;;;;;;;;;;;;;5048111;28;1292;-72
2022/09/19 11:28:27;;;;;;;;;;;;;;;;;;5047300;28;1302;-72
2022/09/19 11:30:57;;;;;;;;;;;;;;;;;;5037150;28;1523;-72
2022/09/19 11:33:38;;;;;;;;;;;;;;;;;;5028814;28;1383;-72
2022/09/19 11:36:25;;;;;;;;;;;;;;;;;;5032063;28;1963;-72
2022/09/19 11:38:53;;;;;;;;;;;;;;;;;;5048346;28;881;-72
2022/09/19 11:41:26;;;;;;;;;;;;;;;;;;5030929;28;1396;-71
2022/09/19 11:44:00;;;;;;;;;;;;;;;;;;5033644;28;1170;-72
2022/09/19 11:46:31;;;;;;;;;;;;;;;;;;5031517;28;1232;-73
2022/09/19 11:49:16;;;;;;;;;;;;;;;;;;5030641;28;1758;-71
2022/09/19 11:51:50;;;;;;;;;;;;;;;;;;5031508;28;1440;-72
2022/09/19 11:54:39;;;;;;;;;;;;;;;;;;5031874;28;1300;-73
2022/09/19 11:57:07;;;;;;;;;;;;;;;;;;5022788;28;1906;-72
2022/09/19 11:59:39;;;;;;;;;;;;;;;;;;5014326;28;1484;-72
2022/09/19 12:02:19;;;;;;;;;;;;;;;;;;5028843;28;1352;-72
2022/09/19 12:04:48;;;;;;;;;;;;;;;;;;5030460;28;1637;-72
2022/09/19 12:07:25;;;;;;;;;;;;;;;;;;5030473;28;1691;-71
2022/09/19 12:09:55;;;;;;;;;;;;;;;;;;5028661;28;1626;-71
2022/09/19 12:12:22;;;;;;;;;;;;;;;;;;5018666;28;1371;-71
2022/09/19 12:15:15;;;;;;;;;;;;;;;;;;5028680;28;1326;-71
2022/09/19 12:17:43;;;;;;;;;;;;;;;;;;5028702;28;1914;-70
2022/09/19 12:20:25;;;;;;;;;;;;;;;;;;5040506;28;1585;-72
2022/09/19 12:22:53;;;;;;;;;;;;;;;;;;5021974;28;1522;-71
2022/09/19 12:25:19;;;;;;;;;;;;;;;;;;5029376;28;1202;-71
2022/09/19 12:27:49;;;;;;;;;;;;;;;;;;5025202;28;1530;-72
2022/09/19 12:30:18;;;;;;;;;;;;;;;;;;5035061;28;1477;-70
2022/09/19 12:32:48;;;;;;;;;;;;;;;;;;5029853;28;1459;-72
2022/09/19 12:35:19;;;;;;;;;;;;;;;;;;5030837;28;1276;-72
2022/09/19 12:37:47;;;;;;;;;;;;;;;;;;5047249;28;1922;-71
2022/09/19 12:40:17;;;;;;;;;;;;;;;;;;5030020;28;1435;-72
2022/09/19 12:42:45;;;;;;;;;;;;;;;;;;5030302;28;1233;-72
2022/09/19 12:45:13;;;;;;;;;;;;;;;;;;5045299;28;1448;-72
2022/09/19 12:47:46;;;;;;;;;;;;;;;;;;5030208;28;1590;-71
2022/09/19 12:50:20;;;;;;;;;;;;;;;;;;5029498;28;1470;-70
2022/09/19 12:52:48;;;;;;;;;;;;;;;;;;5030532;28;1431;-71
2022/09/19 12:55:15;;;;;;;;;;;;;;;;;;5029964;28;1262;-71
2022/09/19 12:57:43;;;;;;;;;;;;;;;;;;5030086;28;1914;-71
2022/09/19 13:00:11;;;;;;;;;;;;;;;;;;5030651;28;1490;-71
2022/09/19 13:02:43;;;;;;;;;;;;;;;;;;5030622;28;1291;-71
2022/09/19 13:05:11;;;;;;;;;;;;;;;;;;5032267;28;846;-71
2022/09/19 13:07:38;;;;;;;;;;;;;;;;;;5030835;28;1419;-72
2022/09/19 13:10:11;;;;;;;;;;;;;;;;;;5030308;28;1407;-72
2022/09/19 13:12:39;;;;;;;;;;;;;;;;;;5031200;28;1131;-71
2022/09/19 13:15:10;;;;;;;;;;;;;;;;;;5031929;28;825;-71
2022/09/19 13:25:53;;;;;;;;;;;;;;;;;;5025394;28;1442;-71
2022/09/19 13:28:25;;;;;;;;;;;;;;;;;;5030750;28;1213;-71
2022/09/19 13:30:52;;;;;;;;;;;;;;;;;;5046218;28;1312;-71
2022/09/19 13:33:21;;;;;;;;;;;;;;;;;;5018628;28;1407;-71
2022/09/19 13:35:49;;;;;;;;;;;;;;;;;;5031401;28;1138;-72
2022/09/19 13:38:25;;;;;;;;;;;;;;;;;;5027407;28;1989;-71
2022/09/19 13:40:56;;;;;;;;;;;;;;;;;;5030859;28;1356;-72
2022/09/19 13:43:28;;;;;;;;;;;;;;;;;;5044637;28;1348;-71
2022/09/19 13:45:56;;;;;;;;;;;;;;;;;;5028045;28;1427;-71
2022/09/19 13:48:26;;;;;;;;;;;;;;;;;;5029001;28;1462;-71
2022/09/19 13:50:54;;;;;;;;;;;;;;;;;;5026330;28;1474;-70
2022/09/19 13:53:30;;;;;;;;;;;;;;;;;;5039652;28;1146;-71
2022/09/19 13:56:00;;;;;;;;;;;;;;;;;;5029376;28;1578;-70
2022/09/19 13:58:28;;;;;;;;;;;;;;;;;;5027387;28;1971;-72
2022/09/19 14:01:07;;;;;;;;;;;;;;;;;;5058766;23;3715;-75
2022/09/19 14:03:35;;;;;;;;;;;;;;;;;;5024897;28;1407;-75
2022/09/19 14:06:17;;;;;;;;;;;;;;;;;;5029138;28;1372;-75
2022/09/19 14:08:43;;;;;;;;;;;;;;;;;;5029091;28;1731;-74
2022/09/19 14:11:11;;;;;;;;;;;;;;;;;;5029921;28;1557;-75
2022/09/19 14:13:38;;;;;;;;;;;;;;;;;;5030309;28;1080;-74
2022/09/19 14:16:19;;;;;;;;;;;;;;;;;;5021522;28;1396;-75
2022/09/19 14:18:48;;;;;;;;;;;;;;;;;;5023576;28;1975;-74
2022/09/19 14:21:33;;;;;;;;;;;;;;;;;;5023315;28;1394;-74
2022/09/19 14:24:03;;;;;;;;;;;;;;;;;;5010382;28;1069;-75
2022/09/19 14:26:35;;;;;;;;;;;;;;;;;;5016277;28;1468;-75
2022/09/19 14:29:05;;;;;;;;;;;;;;;;;;5017685;28;1079;-74
2022/09/19 14:31:33;;;;;;;;;;;;;;;;;;5029784;28;1373;-75
2022/09/19 14:34:19;;;;;;;;;;;;;;;;;;5019770;28;1434;-75
2022/09/19 14:36:58;;;;;;;;;;;;;;;;;;5021839;28;1973;-74
2022/09/19 14:39:41;;;;;;;;;;;;;;;;;;5030054;28;1337;-75
2022/09/19 14:42:13;;;;;;;;;;;;;;;;;;5026668;28;1060;-75
2022/09/19 14:44:43;;;;;;;;;;;;;;;;;;5020967;28;1490;-76
2022/09/19 14:47:10;;;;;;;;;;;;;;;;;;5013702;28;1370;-75
2022/09/19 14:49:38;;;;;;;;;;;;;;;;;;5002356;28;1468;-75
2022/09/19 14:52:04;;;;;;;;;;;;;;;;;;5017841;28;1274;-76
2022/09/19 14:54:32;;;;;;;;;;;;;;;;;;5024512;28;1403;-76
2022/09/19 14:57:01;;;;;;;;;;;;;;;;;;5015846;28;1883;-75
2022/09/19 14:59:29;;;;;;;;;;;;;;;;;;5020566;28;1466;-75
2022/09/19 15:01:55;;;;;;;;;;;;;;;;;;5012719;28;1345;-75
2022/09/19 15:04:23;;;;;;;;;;;;;;;;;;5007690;28;1541;-75
2022/09/19 15:06:51;;;;;;;;;;;;;;;;;;5016334;28;1239;-75
2022/09/19 15:09:18;;;;;;;;;;;;;;;;;;5028130;28;1127;-74
2022/09/19 15:11:47;;;;;;;;;;;;;;;;;;5028348;28;1419;-75
2022/09/19 15:14:13;;;;;;;;;;;;;;;;;;5028799;28;1139;-75
2022/09/19 15:16:41;;;;;;;;;;;;;;;;;;5016121;28;1630;-75
2022/09/19 15:19:08;;;;;;;;;;;;;;;;;;4989782;28;1972;-74
2022/09/19 15:21:35;;;;;;;;;;;;;;;;;;5007638;28;1599;-75
2022/09/19 15:24:01;;;;;;;;;;;;;;;;;;5011206;28;1438;-75
2022/09/19 15:26:28;;;;;;;;;;;;;;;;;;5019527;28;1437;-75
2022/09/19 15:28:55;;;;;;;;;;;;;;;;;;5011889;28;1331;-75
2022/09/19 15:31:23;;;;;;;;;;;;;;;;;;5015428;28;1420;-74
2022/09/19 15:33:51;;;;;;;;;;;;;;;;;;5014672;28;1420;-76
2022/09/19 15:36:18;;;;;;;;;;;;;;;;;;5013821;28;1373;-75
2022/09/19 15:38:44;;;;;;;;;;;;;;;;;;5029269;28;1969;-76
2022/09/19 15:41:12;;;;;;;;;;;;;;;;;;5033719;28;1310;-75
2022/09/19 15:43:40;;;;;;;;;;;;;;;;;;5026124;28;1334;-75
2022/09/19 15:46:26;;;;;;;;;;;;;;;;;;5026227;28;1201;-75
2022/09/19 15:48:55;;;;;;;;;;;;;;;;;;5033861;28;946;-76
2022/09/19 15:51:25;;;;;;;;;;;;;;;;;;5033732;28;1323;-76
2022/09/19 15:53:51;;;;;;;;;;;;;;;;;;5025770;28;1511;-75
2022/09/19 15:56:18;;;;;;;;;;;;;;;;;;5020142;28;1483;-75
2022/09/19 15:58:45;;;;;;;;;;;;;;;;;;5019763;28;1915;-75
2022/09/19 16:01:12;;;;;;;;;;;;;;;;;;5019321;28;1475;-75
2022/09/19 16:03:38;;;;;;;;;;;;;;;;;;5024330;28;1131;-75
2022/09/19 16:08:57;;;;;;;;;;;;;;;;;;5032300;28;1290;-75
2022/09/19 16:09:01;;;;;;;;;;;;;;;;;;5032351;28;1230;-76
2022/09/19 16:11:30;;;;;;;;;;;;;;;;;;5032090;28;1482;-76
2022/09/19 16:13:58;;;;;;;;;;;;;;;;;;5031687;28;1247;-76
2022/09/19 16:16:28;;;;;;;;;;;;;;;;;;5019398;28;1615;-75
2022/09/19 16:18:54;;;;;;;;;;;;;;;;;;5002031;28;1914;-76
2022/09/19 16:21:22;;;;;;;;;;;;;;;;;;5013563;28;1412;-75
2022/09/19 16:23:48;;;;;;;;;;;;;;;;;;5020590;28;1324;-76
2022/09/19 16:26:15;;;;;;;;;;;;;;;;;;5010999;28;938;-75
2022/09/19 16:28:42;;;;;;;;;;;;;;;;;;5008392;28;1478;-76
2022/09/19 16:31:19;;;;;;;;;;;;;;;;;;5019332;28;1355;-76
2022/09/19 16:33:48;;;;;;;;;;;;;;;;;;5020135;28;1205;-75
2022/09/19 16:36:14;;;;;;;;;;;;;;;;;;5009743;28;1320;-76
2022/09/19 16:38:42;;;;;;;;;;;;;;;;;;5011297;28;1974;-75
2022/09/19 16:41:08;;;;;;;;;;;;;;;;;;5021508;28;1512;-76
2022/09/19 16:43:36;;;;;;;;;;;;;;;;;;5029178;28;869;-76
2022/09/19 16:46:03;;;;;;;;;;;;;;;;;;5019472;28;1396;-76
2022/09/19 16:48:29;;;;;;;;;;;;;;;;;;5013976;28;1550;-76
2022/09/19 16:50:55;;;;;;;;;;;;;;;;;;5021824;28;1476;-76
2022/09/19 16:53:22;;;;;;;;;;;;;;;;;;5028421;28;866;-76
2022/09/19 16:55:50;;;;;;;;;;;;;;;;;;5030375;28;1111;-75
2022/09/19 16:58:16;;;;;;;;;;;;;;;;;;5011396;28;2638;-75
2022/09/19 17:00:43;;;;;;;;;;;;;;;;;;5006072;28;1387;-76
2022/09/19 17:03:09;;;;;;;;;;;;;;;;;;5023557;28;1259;-76
2022/09/19 17:05:36;;;;;;;;;;;;;;;;;;5017109;28;1440;-75
2022/09/19 17:08:03;;;;;;;;;;;;;;;;;;5022212;28;1114;-76
2022/09/19 17:10:30;;;;;;;;;;;;;;;;;;5021785;28;1458;-74
2022/09/19 17:12:57;;;;;;;;;;;;;;;;;;5018652;28;1555;-76
2022/09/19 17:15:27;;;;;;;;;;;;;;;;;;5009477;28;1173;-76
2022/09/19 17:17:53;;;;;;;;;;;;;;;;;;5010570;28;1906;-76
2022/09/19 17:20:20;;;;;;;;;;;;;;;;;;5010662;28;1326;-76
2022/09/19 17:22:46;;;;;;;;;;;;;;;;;;5013683;28;1463;-76
2022/09/19 17:25:13;;;;;;;;;;;;;;;;;;5022045;28;1133;-76
2022/09/19 17:27:41;;;;;;;;;;;;;;;;;;5013873;28;1412;-76
2022/09/19 17:30:09;;;;;;;;;;;;;;;;;;5017884;28;1460;-76
2022/09/19 17:32:35;;;;;;;;;;;;;;;;;;5015782;28;1404;-76
2022/09/19 17:35:02;;;;;;;;;;;;;;;;;;5013786;28;1451;-76
2022/09/19 17:37:28;;;;;;;;;;;;;;;;;;5017432;28;1213;-77
2022/09/19 17:39:55;;;;;;;;;;;;;;;;;;5010197;28;1914;-76
2022/09/19 17:42:22;;;;;;;;;;;;;;;;;;5010290;28;787;-76
2022/09/19 17:44:49;;;;;;;;;;;;;;;;;;5009464;28;1491;-77
2022/09/19 17:47:16;;;;;;;;;;;;;;;;;;5019044;28;1057;-76
2022/09/19 17:49:43;;;;;;;;;;;;;;;;;;5029994;28;1419;-77